Time;durP1;ratioP1;P1;durP2;ratioP2;P2;SDS_P1;SDS_P2;PMS_P1;PMS_P2;Temp;Humidity;BMP_temperature;BMP_pressure;BME280_temperature;BME280_humidity;BME280_pressure;Samples;Min_cycle;Max_cycle;Signal;HPM_P1;HPM_P2
2021/12/03 00:02:00;;;;;;;3.45;1.33;;;18.70;47.00;;;;;;4843570;29;20038;-62
2021/12/03 00:04:26;;;;;;;2.33;1.30;;;18.70;47.00;;;;;;4843697;29;20029;-62
2021/12/03 00:06:52;;;;;;;2.40;1.20;;;18.70;46.90;;;;;;4842808;29;20414;-62
2021/12/03 00:09:17;;;;;;;2.10;1.50;;;18.70;47.00;;;;;;4843292;29;20038;-62
2021/12/03 00:11:43;;;;;;;1.83;1.20;;;18.70;47.00;;;;;;4846348;29;20052;-62
2021/12/03 00:14:08;;;;;;;1.60;1.20;;;18.70;46.90;;;;;;4850889;29;20129;-62
2021/12/03 00:16:34;;;;;;;2.10;1.38;;;18.60;47.00;;;;;;4842898;29;20044;-62
2021/12/03 00:19:00;;;;;;;2.80;1.45;;;18.60;46.90;;;;;;4842526;29;20513;-62
2021/12/03 00:21:26;;;;;;;2.65;1.30;;;18.60;47.00;;;;;;4843710;29;20069;-62
2021/12/03 00:23:53;;;;;;;2.97;1.35;;;18.60;47.00;;;;;;4842476;29;20077;-62
2021/12/03 00:26:19;;;;;;;2.42;1.40;;;18.60;47.00;;;;;;4842552;29;20113;-61
2021/12/03 00:28:44;;;;;;;2.30;1.40;;;18.60;47.00;;;;;;4843670;29;20121;-63
2021/12/03 00:31:11;;;;;;;2.47;1.35;;;18.60;47.90;;;;;;4843241;29;20502;-62
2021/12/03 00:33:38;;;;;;;2.67;1.40;;;18.50;46.90;;;;;;4842887;29;20057;-62
2021/12/03 00:36:06;;;;;;;3.22;1.40;;;18.60;46.90;;;;;;4842069;29;20086;-62
2021/12/03 00:38:40;;;;;;;2.88;1.38;;;18.50;46.80;;;;;;4843329;29;20067;-62
2021/12/03 00:41:08;;;;;;;2.38;1.20;;;18.50;47.70;;;;;;4853009;29;20022;-62
2021/12/03 00:43:37;;;;;;;1.60;1.02;;;18.50;46.80;;;;;;4847267;29;20065;-62
2021/12/03 00:46:06;;;;;;;1.70;1.20;;;18.40;46.70;;;;;;4846686;29;20026;-62
2021/12/03 00:48:33;;;;;;;1.33;1.00;;;18.40;46.70;;;;;;4846976;29;20033;-62
2021/12/03 00:50:59;;;;;;;2.88;1.50;;;18.40;46.70;;;;;;4851252;29;20414;-62
2021/12/03 00:53:24;;;;;;;2.08;1.20;;;18.40;46.70;;;;;;4847383;29;20072;-62
2021/12/03 00:55:50;;;;;;;3.28;1.60;;;18.40;46.70;;;;;;4845965;29;20033;-62
2021/12/03 00:58:16;;;;;;;2.05;1.10;;;18.30;46.60;;;;;;4847919;29;20034;-62
2021/12/03 01:00:41;;;;;;;2.53;1.20;;;18.30;47.50;;;;;;4846574;29;20034;-62
2021/12/03 01:03:07;;;;;;;2.40;1.30;;;18.30;46.60;;;;;;4847572;29;20027;-62
2021/12/03 01:05:33;;;;;;;1.92;1.25;;;18.30;46.60;;;;;;4846181;29;20117;-62
2021/12/03 01:08:00;;;;;;;2.00;1.17;;;18.30;46.60;;;;;;4846105;29;20030;-62
2021/12/03 01:10:27;;;;;;;2.95;1.30;;;18.30;46.50;;;;;;4845995;29;20034;-62
2021/12/03 01:12:54;;;;;;;1.77;1.27;;;18.20;46.50;;;;;;4859663;29;20699;-62
2021/12/03 01:15:23;;;;;;;2.00;1.17;;;18.20;46.50;;;;;;4845983;29;20038;-62
2021/12/03 01:17:50;;;;;;;2.25;1.10;;;18.20;46.40;;;;;;4846062;29;20381;-62
2021/12/03 01:20:17;;;;;;;1.83;1.23;;;18.20;46.40;;;;;;4845545;29;20030;-62
2021/12/03 01:22:45;;;;;;;1.90;1.10;;;18.20;46.40;;;;;;4850237;29;20082;-62
2021/12/03 01:25:12;;;;;;;1.83;1.10;;;18.10;46.30;;;;;;4858802;29;20113;-62
2021/12/03 01:27:38;;;;;;;2.53;1.23;;;18.10;46.40;;;;;;4849732;29;20085;-62
2021/12/03 01:30:09;;;;;;;2.10;1.10;;;18.10;46.40;;;;;;4836837;29;20037;-62
2021/12/03 01:32:34;;;;;;;1.98;1.10;;;18.10;46.30;;;;;;4861187;29;20033;-62
2021/12/03 01:35:00;;;;;;;2.45;1.17;;;18.10;46.30;;;;;;4863565;29;20128;-62
2021/12/03 01:37:26;;;;;;;2.05;1.10;;;18.10;46.30;;;;;;4863346;29;20040;-62
2021/12/03 01:39:52;;;;;;;2.75;1.35;;;18.00;46.20;;;;;;4837394;29;20048;-62
2021/12/03 01:42:17;;;;;;;1.65;1.02;;;18.10;47.20;;;;;;4858646;29;20109;-62
2021/12/03 01:44:43;;;;;;;1.92;1.05;;;18.00;46.30;;;;;;4855395;29;20041;-62
2021/12/03 01:47:09;;;;;;;2.53;1.40;;;18.00;46.30;;;;;;4862072;29;20021;-62
2021/12/03 01:49:34;;;;;;;2.08;1.10;;;18.00;46.30;;;;;;4856603;29;20042;-62
2021/12/03 01:52:00;;;;;;;1.85;0.95;;;18.00;46.30;;;;;;4845300;29;20081;-62
2021/12/03 01:54:26;;;;;;;2.33;1.20;;;18.00;46.30;;;;;;4844585;29;20052;-62
2021/12/03 01:56:51;;;;;;;2.83;1.30;;;18.00;46.30;;;;;;4861153;29;20034;-62
2021/12/03 01:59:17;;;;;;;2.63;1.25;;;17.90;46.20;;;;;;4858222;29;20038;-62
2021/12/03 02:01:43;;;;;;;3.40;1.23;;;17.90;46.20;;;;;;4861165;29;20132;-62
2021/12/03 02:04:09;;;;;;;2.03;0.90;;;17.90;46.20;;;;;;4858043;29;20034;-62
2021/12/03 02:06:36;;;;;;;1.63;1.20;;;17.90;47.10;;;;;;4844620;29;20121;-62
2021/12/03 02:09:04;;;;;;;1.85;1.00;;;17.90;46.10;;;;;;4846277;29;20430;-62
2021/12/03 02:11:29;;;;;;;1.65;1.00;;;17.80;46.10;;;;;;4851513;29;20129;-62
2021/12/03 02:13:55;;;;;;;3.00;1.45;;;17.90;46.20;;;;;;4853702;29;20132;-62
2021/12/03 02:16:22;;;;;;;1.80;1.10;;;17.80;46.00;;;;;;4845949;29;20034;-62
2021/12/03 02:18:48;;;;;;;2.53;1.13;;;17.80;46.10;;;;;;4845220;29;20386;-62
2021/12/03 02:21:14;;;;;;;1.80;0.98;;;17.80;46.00;;;;;;4845357;29;20030;-62
2021/12/03 02:23:41;;;;;;;1.75;1.23;;;17.80;46.10;;;;;;4844783;29;20094;-62
2021/12/03 02:26:08;;;;;;;1.33;1.13;;;17.80;46.00;;;;;;4845428;29;20475;-62
2021/12/03 02:28:38;;;;;;;2.15;1.15;;;17.80;46.00;;;;;;4845350;29;20113;-62
2021/12/03 02:31:04;;;;;;;3.72;1.30;;;17.80;46.00;;;;;;4856922;29;20398;-62
2021/12/03 02:33:31;;;;;;;2.33;1.30;;;17.80;46.00;;;;;;4844925;29;20113;-62
2021/12/03 02:35:57;;;;;;;1.05;0.80;;;17.80;46.10;;;;;;4848522;29;20034;-62
2021/12/03 02:38:23;;;;;;;2.78;1.38;;;17.70;45.90;;;;;;4851259;29;20033;-62
2021/12/03 02:40:50;;;;;;;1.77;1.23;;;17.70;45.90;;;;;;4844579;29;20077;-62
2021/12/03 02:43:17;;;;;;;2.35;1.33;;;17.70;45.90;;;;;;4844757;29;20033;-62
2021/12/03 02:45:42;;;;;;;2.30;1.23;;;17.70;45.90;;;;;;4845298;29;20026;-62
2021/12/03 02:48:09;;;;;;;1.88;1.30;;;17.70;45.90;;;;;;4844603;29;20045;-62
2021/12/03 02:50:35;;;;;;;2.58;1.00;;;17.70;45.90;;;;;;4847243;29;20037;-62
2021/12/03 02:53:00;;;;;;;2.10;1.20;;;17.70;45.90;;;;;;4847111;29;20038;-62
2021/12/03 02:55:27;;;;;;;2.45;1.27;;;17.60;45.80;;;;;;4845567;29;20030;-62
2021/12/03 02:57:53;;;;;;;3.38;1.25;;;17.60;45.80;;;;;;4844744;29;20034;-62
2021/12/03 03:00:22;;;;;;;2.28;1.30;;;17.60;45.80;;;;;;4845509;29;20095;-62
2021/12/03 03:02:47;;;;;;;2.17;0.90;;;17.60;45.80;;;;;;4843786;29;20022;-62
2021/12/03 03:05:16;;;;;;;3.65;1.42;;;17.60;46.80;;;;;;4844214;29;20075;-62
2021/12/03 03:07:42;;;;;;;2.38;1.15;;;17.60;45.80;;;;;;4843751;29;20030;-62
2021/12/03 03:10:11;;;;;;;2.33;1.50;;;17.60;45.80;;;;;;4847426;29;20086;-62
2021/12/03 03:12:41;;;;;;;3.03;1.40;;;17.60;45.80;;;;;;4857086;29;20443;-62
2021/12/03 03:15:08;;;;;;;1.80;1.20;;;17.60;45.80;;;;;;4849973;29;20455;-62
2021/12/03 03:17:34;;;;;;;2.47;1.33;;;17.60;45.80;;;;;;4853161;29;20049;-62
2021/12/03 03:20:00;;;;;;;2.10;1.35;;;17.50;46.70;;;;;;4858737;29;20037;-62
2021/12/03 03:22:27;;;;;;;1.83;1.27;;;17.50;45.70;;;;;;4851979;29;20038;-62
2021/12/03 03:24:54;;;;;;;2.67;1.55;;;17.50;45.70;;;;;;4862079;29;20030;-62
2021/12/03 03:27:21;;;;;;;2.75;1.17;;;17.50;45.70;;;;;;4849409;29;20037;-62
2021/12/03 03:29:48;;;;;;;2.72;1.70;;;17.50;45.70;;;;;;4851848;29;20494;-62
2021/12/03 03:32:15;;;;;;;3.40;1.63;;;17.50;45.70;;;;;;4843656;29;20042;-62
2021/12/03 03:34:41;;;;;;;2.45;1.50;;;17.50;45.70;;;;;;4843073;29;20762;-62
2021/12/03 03:37:07;;;;;;;3.70;1.90;;;17.50;45.70;;;;;;4842749;29;20030;-62
2021/12/03 03:39:33;;;;;;;3.20;2.00;;;17.50;45.70;;;;;;4843420;29;20041;-62
2021/12/03 03:41:59;;;;;;;3.20;1.70;;;17.50;45.70;;;;;;4843327;29;20030;-62
2021/12/03 03:44:25;;;;;;;3.30;1.90;;;17.40;45.60;;;;;;4846162;29;20021;-62
2021/12/03 03:46:53;;;;;;;3.08;1.67;;;17.40;45.60;;;;;;4843395;29;20037;-62
2021/12/03 03:49:20;;;;;;;3.63;2.08;;;17.40;45.60;;;;;;4843116;29;20486;-62
2021/12/03 03:51:47;;;;;;;3.38;2.10;;;17.50;45.70;;;;;;4843109;29;20030;-62
2021/12/03 03:54:13;;;;;;;3.63;2.10;;;17.50;45.60;;;;;;4843204;29;20535;-62
2021/12/03 03:56:39;;;;;;;4.95;2.42;;;17.40;45.60;;;;;;4843918;29;20061;-62
2021/12/03 03:59:06;;;;;;;3.88;1.88;;;17.40;45.60;;;;;;4848292;29;20066;-62
2021/12/03 04:01:31;;;;;;;4.63;2.08;;;17.40;45.60;;;;;;4843610;29;20038;-62
2021/12/03 04:03:58;;;;;;;4.72;2.28;;;17.40;45.60;;;;;;4842522;29;20154;-62
2021/12/03 04:06:24;;;;;;;3.03;2.08;;;17.40;45.60;;;;;;4842433;29;20041;-62
2021/12/03 04:08:50;;;;;;;4.43;2.30;;;17.40;45.60;;;;;;4851671;29;20037;-62
2021/12/03 04:11:19;;;;;;;5.65;2.55;;;17.30;45.50;;;;;;4850458;29;20053;-62
2021/12/03 04:13:45;;;;;;;4.13;2.60;;;17.40;45.60;;;;;;4851182;29;20041;-62
2021/12/03 04:16:11;;;;;;;5.72;2.60;;;17.40;45.50;;;;;;4857246;29;20044;-62
2021/12/03 04:18:36;;;;;;;4.65;2.80;;;17.30;45.50;;;;;;4842890;29;20038;-62
2021/12/03 04:21:03;;;;;;;5.60;2.88;;;17.30;45.50;;;;;;4854614;29;20030;-62
2021/12/03 04:23:29;;;;;;;5.65;2.83;;;17.30;45.50;;;;;;4853304;29;20058;-62
2021/12/03 04:25:55;;;;;;;5.00;2.83;;;17.30;45.50;;;;;;4846968;29;20675;-62
2021/12/03 04:28:21;;;;;;;5.32;2.92;;;17.30;45.50;;;;;;4852456;29;20117;-62
2021/12/03 04:30:47;;;;;;;5.40;2.92;;;17.30;46.40;;;;;;4843804;29;20045;-62
2021/12/03 04:33:13;;;;;;;5.60;3.00;;;17.30;45.50;;;;;;4843197;29;20041;-62
2021/12/03 04:35:39;;;;;;;5.85;2.85;;;17.30;45.40;;;;;;4842977;29;20045;-62
2021/12/03 04:38:06;;;;;;;5.20;2.90;;;17.20;45.40;;;;;;4842778;29;20030;-62
2021/12/03 04:40:33;;;;;;;5.18;2.78;;;17.20;45.40;;;;;;4843209;29;20502;-62
2021/12/03 04:42:59;;;;;;;5.00;3.17;;;17.30;45.40;;;;;;4843174;29;20468;-62
2021/12/03 04:45:27;;;;;;;5.97;3.10;;;17.20;45.40;;;;;;4842544;29;20022;-62
2021/12/03 04:47:54;;;;;;;6.28;2.90;;;17.20;45.50;;;;;;4842736;29;20064;-62
2021/12/03 04:50:22;;;;;;;5.88;3.00;;;17.20;45.50;;;;;;4842799;29;20033;-62
2021/12/03 04:52:48;;;;;;;5.57;3.20;;;17.20;45.40;;;;;;4845959;29;20080;-62
2021/12/03 04:55:15;;;;;;;5.70;3.30;;;17.20;45.40;;;;;;4854540;29;20459;-62
2021/12/03 04:57:42;;;;;;;6.43;2.88;;;17.20;45.40;;;;;;4842589;29;20078;-62
2021/12/03 05:00:16;;;;;;;4.78;3.28;;;17.20;45.40;;;;;;4849008;29;20041;-62
2021/12/03 05:02:43;;;;;;;6.20;3.30;;;17.20;45.40;;;;;;4842604;29;20034;-62
2021/12/03 05:05:08;;;;;;;7.32;3.85;;;17.20;45.50;;;;;;4842654;29;20026;-62
2021/12/03 05:10:04;;;;;;;6.15;3.25;;;17.10;45.30;;;;;;4842211;29;20124;-62
2021/12/03 05:12:30;;;;;;;5.65;3.38;;;17.10;45.40;;;;;;4856462;29;20080;-62
2021/12/03 05:14:56;;;;;;;7.75;3.92;;;17.10;45.40;;;;;;4856350;29;20053;-62
2021/12/03 05:17:21;;;;;;;5.85;3.45;;;17.10;45.40;;;;;;4860399;29;20112;-62
2021/12/03 05:19:47;;;;;;;6.05;3.55;;;17.10;45.40;;;;;;4847182;29;20025;-62
2021/12/03 05:22:13;;;;;;;6.80;3.83;;;17.10;45.40;;;;;;4853283;29;20527;-62
2021/12/03 05:24:40;;;;;;;6.82;3.78;;;17.10;45.40;;;;;;4848634;29;20068;-62
2021/12/03 05:27:06;;;;;;;6.07;3.42;;;17.10;45.40;;;;;;4860850;29;20102;-62
2021/12/03 05:29:32;;;;;;;7.60;3.58;;;17.10;45.40;;;;;;4856026;29;20490;-62
2021/12/03 05:31:58;;;;;;;5.95;3.88;;;17.10;45.40;;;;;;4840886;29;20037;-62
2021/12/03 05:34:24;;;;;;;6.28;3.60;;;17.10;45.40;;;;;;4853425;29;20401;-62
2021/12/03 05:36:50;;;;;;;6.13;3.72;;;17.10;45.40;;;;;;4844980;29;20402;-62
2021/12/03 05:39:16;;;;;;;7.40;3.75;;;17.00;45.30;;;;;;4845204;29;20037;-62
2021/12/03 05:41:42;;;;;;;8.35;3.58;;;17.00;45.30;;;;;;4845463;29;20038;-62
2021/12/03 05:44:08;;;;;;;6.65;3.70;;;17.00;45.30;;;;;;4845374;29;20117;-62
2021/12/03 05:46:34;;;;;;;6.03;3.25;;;17.00;45.30;;;;;;4845429;29;20030;-62
2021/12/03 05:48:59;;;;;;;7.57;3.92;;;17.00;45.30;;;;;;4860195;29;20039;-62
2021/12/03 05:51:26;;;;;;;7.68;4.15;;;17.00;45.30;;;;;;4857059;29;20393;-62
2021/12/03 05:53:53;;;;;;;8.40;4.22;;;17.00;45.40;;;;;;4849853;29;20116;-62
2021/12/03 05:56:19;;;;;;;6.60;3.60;;;17.00;45.40;;;;;;4861212;29;20128;-62
2021/12/03 05:58:44;;;;;;;8.57;4.10;;;17.00;45.40;;;;;;4857506;29;20109;-62
2021/12/03 06:01:10;;;;;;;7.57;4.15;;;17.00;45.30;;;;;;4845381;29;20034;-62
2021/12/03 06:03:36;;;;;;;7.82;4.18;;;17.00;46.30;;;;;;4852930;29;20030;-61
2021/12/03 06:06:02;;;;;;;7.78;3.90;;;17.00;45.40;;;;;;4844794;29;20033;-62
2021/12/03 06:08:28;;;;;;;8.43;3.90;;;16.90;45.30;;;;;;4844431;29;20156;-62
2021/12/03 06:10:53;;;;;;;6.35;3.88;;;16.90;45.30;;;;;;4855254;29;20058;-62
2021/12/03 06:13:19;;;;;;;8.25;4.57;;;16.90;45.30;;;;;;4856266;29;20058;-62
2021/12/03 06:15:45;;;;;;;8.65;4.40;;;16.90;45.30;;;;;;4844130;29;20026;-62
2021/12/03 06:18:10;;;;;;;7.05;4.18;;;16.90;45.30;;;;;;4850041;29;20040;-62
2021/12/03 06:20:36;;;;;;;10.05;4.30;;;16.90;46.40;;;;;;4858361;29;20475;-62
2021/12/03 06:23:02;;;;;;;8.25;4.10;;;16.90;45.30;;;;;;4844160;29;20026;-62
2021/12/03 06:25:27;;;;;;;6.65;3.58;;;16.90;45.30;;;;;;4845395;29;20419;-62
2021/12/03 06:27:56;;;;;;;6.50;3.83;;;16.90;45.30;;;;;;4850828;29;20034;-62
2021/12/03 06:30:23;;;;;;;6.32;3.90;;;16.90;45.30;;;;;;4850434;29;20052;-62
2021/12/03 06:32:49;;;;;;;6.97;4.07;;;16.90;45.40;;;;;;4850453;29;20378;-62
2021/12/03 06:35:16;;;;;;;5.82;3.47;;;16.90;45.30;;;;;;4859362;29;20041;-62
2021/12/03 06:37:42;;;;;;;6.57;4.03;;;16.90;45.40;;;;;;4845266;29;20099;-62
2021/12/03 06:40:12;;;;;;;7.28;4.22;;;16.90;45.40;;;;;;4843463;29;20489;-62
2021/12/03 06:42:38;;;;;;;5.78;3.70;;;16.90;45.40;;;;;;4849060;29;20022;-62
2021/12/03 06:45:06;;;;;;;7.43;3.97;;;16.80;45.30;;;;;;4844431;29;20037;-62
2021/12/03 06:47:32;;;;;;;6.20;3.75;;;16.80;45.40;;;;;;4850939;29;20029;-62
2021/12/03 06:49:58;;;;;;;6.05;4.05;;;16.80;45.30;;;;;;4852447;29;20509;-62
2021/12/03 06:52:24;;;;;;;6.75;3.70;;;16.80;45.40;;;;;;4855340;29;20042;-62
2021/12/03 06:54:57;;;;;;;7.03;3.80;;;16.80;45.30;;;;;;4856606;29;20041;-62
2021/12/03 06:57:23;;;;;;;7.03;3.55;;;16.80;45.40;;;;;;4862229;29;20041;-62
2021/12/03 06:59:48;;;;;;;7.90;3.80;;;16.80;45.30;;;;;;4851888;29;20049;-62
2021/12/03 07:02:14;;;;;;;5.35;3.10;;;16.80;45.30;;;;;;4845714;29;20057;-62
2021/12/03 07:04:41;;;;;;;6.43;3.78;;;16.80;45.40;;;;;;4856035;29;20029;-62
2021/12/03 07:07:07;;;;;;;8.02;3.80;;;16.80;45.30;;;;;;4827051;29;20050;-62
2021/12/03 07:09:32;;;;;;;6.63;3.55;;;16.80;45.30;;;;;;4851631;29;20367;-62
2021/12/03 07:11:58;;;;;;;5.40;2.80;;;16.80;45.40;;;;;;4847833;29;20054;-62
2021/12/03 07:14:24;;;;;;;5.45;3.10;;;16.80;45.30;;;;;;4844276;29;20402;-62
2021/12/03 07:16:49;;;;;;;4.60;2.90;;;16.80;45.20;;;;;;4853903;29;20049;-62
2021/12/03 07:19:15;;;;;;;6.60;3.10;;;16.80;45.30;;;;;;4854481;29;20056;-62
2021/12/03 07:21:41;;;;;;;5.90;3.05;;;16.80;45.20;;;;;;4854336;29;20078;-62
2021/12/03 07:24:07;;;;;;;5.28;3.13;;;16.80;45.30;;;;;;4843157;29;20420;-62
2021/12/03 07:26:33;;;;;;;5.47;2.80;;;16.80;45.30;;;;;;4848195;29;20033;-62
2021/12/03 07:28:59;;;;;;;6.03;2.72;;;16.80;45.20;;;;;;4853741;29;20041;-62
2021/12/03 07:31:24;;;;;;;5.40;2.80;;;16.80;45.20;;;;;;4843437;29;20030;-62
2021/12/03 07:33:53;;;;;;;3.88;2.47;;;16.80;45.10;;;;;;4843183;29;20375;-62
2021/12/03 07:36:19;;;;;;;6.00;2.70;;;16.80;45.10;;;;;;4843237;29;20093;-62
2021/12/03 07:38:44;;;;;;;4.45;2.60;;;16.80;45.10;;;;;;4843584;29;20104;-62
2021/12/03 07:41:10;;;;;;;4.68;2.45;;;16.80;45.10;;;;;;4843512;29;20048;-62
2021/12/03 07:43:36;;;;;;;6.32;2.70;;;16.80;45.00;;;;;;4842750;29;20504;-62
2021/12/03 07:46:02;;;;;;;6.13;2.90;;;16.80;45.00;;;;;;4851473;29;20033;-62
2021/12/03 07:48:28;;;;;;;5.30;2.75;;;16.90;45.00;;;;;;4849141;29;20050;-62
2021/12/03 07:50:56;;;;;;;5.60;2.88;;;16.90;44.90;;;;;;4844868;29;20065;-62
2021/12/03 07:53:22;;;;;;;5.70;2.67;;;16.90;44.90;;;;;;4843329;29;20104;-62
2021/12/03 07:55:50;;;;;;;6.25;2.40;;;16.90;44.90;;;;;;4843809;29;20030;-62
2021/12/03 07:58:17;;;;;;;4.55;2.50;;;16.90;45.00;;;;;;4843374;29;20030;-62
2021/12/03 08:00:44;;;;;;;7.57;3.08;;;16.90;44.90;;;;;;4843039;29;20022;-62
2021/12/03 08:03:11;;;;;;;6.65;2.78;;;16.90;44.70;;;;;;4842733;29;20057;-63
2021/12/03 08:05:37;;;;;;;8.30;3.20;;;16.90;44.50;;;;;;4852270;29;20039;-60
2021/12/03 08:08:03;;;;;;;9.32;3.78;;;16.70;41.90;;;;;;4846498;29;20064;-61
2021/12/03 08:10:29;;;;;;;8.52;3.47;;;15.90;41.30;;;;;;4847636;29;20494;-58
2021/12/03 08:12:54;;;;;;;8.57;3.28;;;15.20;42.00;;;;;;4851108;29;20096;-59
2021/12/03 08:15:20;;;;;;;8.18;3.60;;;14.60;42.90;;;;;;4849160;29;20042;-59
2021/12/03 08:17:49;;;;;;;10.77;3.30;;;14.20;43.40;;;;;;4851580;29;20097;-59
2021/12/03 08:20:17;;;;;;;8.98;3.50;;;14.00;45.50;;;;;;4850562;29;20030;-59
2021/12/03 08:22:43;;;;;;;9.43;3.30;;;13.80;44.50;;;;;;4848544;29;20081;-58
2021/12/03 08:25:09;;;;;;;6.25;2.83;;;13.60;44.80;;;;;;4846710;29;20086;-58
2021/12/03 08:27:35;;;;;;;7.45;2.40;;;13.70;46.20;;;;;;4848937;29;20053;-57
2021/12/03 08:30:01;;;;;;;8.05;2.40;;;13.90;46.60;;;;;;4847421;29;20420;-58
2021/12/03 08:32:26;;;;;;;6.22;2.10;;;14.30;46.60;;;;;;4849128;29;20366;-58
2021/12/03 08:34:52;;;;;;;4.22;1.88;;;14.60;46.30;;;;;;4846938;29;20045;-57
2021/12/03 08:37:18;;;;;;;5.85;2.00;;;15.00;46.10;;;;;;4852323;29;20030;-58
2021/12/03 08:39:43;;;;;;;10.80;3.10;;;15.30;45.70;;;;;;4852922;29;20034;-59
2021/12/03 08:42:11;;;;;;;7.47;2.05;;;15.50;45.40;;;;;;4849837;29;20038;-59
2021/12/03 08:44:37;;;;;;;6.75;1.80;;;15.80;45.00;;;;;;4848027;29;20023;-59
2021/12/03 08:47:05;;;;;;;4.80;1.80;;;16.00;44.80;;;;;;4846568;29;20496;-63
2021/12/03 08:49:45;;;;;;;8.95;2.08;;;16.20;44.60;;;;;;4842319;29;20355;-60
2021/12/03 08:54:56;;;;;;;6.78;2.03;;;16.60;44.30;;;;;;4850951;29;20501;-60
2021/12/03 08:57:31;;;;;;;7.05;2.20;;;16.80;44.20;;;;;;4845809;29;20034;-60
2021/12/03 09:00:06;;;;;;;6.93;2.40;;;17.00;43.80;;;;;;4848403;29;20030;-61
2021/12/03 09:02:32;;;;;;;4.45;1.50;;;17.20;43.70;;;;;;4848575;29;20083;-62
2021/12/03 09:04:57;;;;;;;7.38;2.00;;;17.40;43.50;;;;;;4862314;29;20029;-61
2021/12/03 09:07:23;;;;;;;7.40;1.80;;;17.50;43.20;;;;;;4858211;29;20029;-60
2021/12/03 09:09:49;;;;;;;5.35;2.15;;;17.70;43.10;;;;;;4853823;29;20111;-60
2021/12/03 09:12:15;;;;;;;4.82;1.80;;;17.80;42.90;;;;;;4814247;29;1089832;-60
2021/12/03 09:14:48;;;;;;;4.70;1.60;;;17.90;42.60;;;;;;4854309;29;20050;-60
2021/12/03 09:22:45;;;;;;;5.63;1.80;;;18.30;41.90;;;;;;4850812;29;20044;-60
2021/12/03 09:25:17;;;;;;;4.63;1.67;;;18.40;42.60;;;;;;4849244;29;20106;-61
2021/12/03 09:27:43;;;;;;;6.10;2.03;;;18.60;41.40;;;;;;4849242;29;20065;-62
2021/12/03 09:30:13;;;;;;;4.70;1.60;;;18.70;41.10;;;;;;4848916;29;20038;-61
2021/12/03 09:32:41;;;;;;;5.15;1.70;;;18.70;40.90;;;;;;4851411;29;20033;-61
2021/12/03 09:35:09;;;;;;;5.53;2.15;;;18.80;40.70;;;;;;4845261;29;20076;-61
2021/12/03 09:37:34;;;;;;;6.97;1.92;;;18.80;40.50;;;;;;4858868;29;20038;-61
2021/12/03 09:40:05;;;;;;;4.72;1.30;;;18.90;40.40;;;;;;4852267;29;20034;-61
2021/12/03 09:42:38;;;;;;;4.43;1.60;;;19.00;40.20;;;;;;4853196;29;20406;-61
2021/12/03 09:45:06;;;;;;;6.18;1.73;;;19.10;40.00;;;;;;4849323;29;20018;-61
2021/12/03 09:47:32;;;;;;;6.20;1.55;;;19.20;39.90;;;;;;4851840;29;20063;-61
2021/12/03 09:50:01;;;;;;;3.65;1.65;;;19.20;39.80;;;;;;4845953;29;20030;-61
2021/12/03 09:52:35;;;;;;;5.53;1.60;;;19.20;39.70;;;;;;4851938;29;20030;-61
2021/12/03 09:55:03;;;;;;;4.72;1.40;;;19.20;39.40;;;;;;4851091;29;20375;-61
2021/12/03 10:00:10;;;;;;;4.97;1.70;;;19.40;39.20;;;;;;4852119;29;20069;-61
2021/12/03 10:02:59;;;;;;;5.10;1.75;;;19.40;39.10;;;;;;4851399;29;20018;-61
2021/12/03 10:22:10;;;;;;;3.95;1.45;;;19.60;38.40;;;;;;4829142;29;20038;-61
2021/12/03 10:40:28;;;;;;;4.53;1.30;;;19.70;38.00;;;;;;4831084;29;20034;-59
2021/12/03 10:43:25;;;;;;;3.90;1.42;;;19.70;38.00;;;;;;4827353;29;20030;-59
2021/12/03 11:11:10;;;;;;;5.57;1.38;;;19.90;37.50;;;;;;4823865;29;20121;-58
2021/12/03 11:38:44;;;;;;;3.38;1.27;;;20.50;37.10;;;;;;4835646;29;20154;-59
2021/12/03 12:36:15;;;;;;;3.33;1.25;;;21.30;36.30;;;;;;4846190;29;20042;-60
2021/12/03 13:36:39;;;;;;;2.95;1.20;;;21.20;36.20;;;;;;4851068;29;20054;-60
2021/12/03 14:43:44;;;;;;;3.03;1.02;;;20.90;38.60;;;;;;4853029;29;20038;-60
2021/12/03 14:46:28;;;;;;;1.38;0.75;;;20.90;38.60;;;;;;4852925;29;20482;-59
2021/12/03 14:54:50;;;;;;;4.60;0.90;;;20.80;38.80;;;;;;4814341;29;20041;-59
2021/12/03 15:03:11;;;;;;;2.80;1.13;;;20.80;39.00;;;;;;4849385;29;20041;-61
2021/12/03 15:08:34;;;;;;;2.15;0.85;;;20.70;39.20;;;;;;4850094;29;20057;-61
2021/12/03 15:27:02;;;;;;;2.28;0.93;;;20.50;39.80;;;;;;4850861;29;20030;-63
2021/12/03 15:32:15;;;;;;;1.45;0.80;;;20.50;40.20;;;;;;4855641;29;20082;-64
2021/12/03 15:37:38;;;;;;;1.90;0.80;;;20.40;40.50;;;;;;4850450;29;20508;-62
2021/12/03 15:40:37;;;;;;;2.55;1.00;;;20.40;40.60;;;;;;4853869;29;20509;-62
2021/12/03 16:04:35;;;;;;;3.92;1.45;;;20.20;41.40;;;;;;4854785;29;20098;-65
2021/12/03 16:14:57;;;;;;;4.45;1.52;;;20.10;41.60;;;;;;4854152;29;20049;-60
2021/12/03 16:17:36;;;;;;;4.38;1.60;;;20.10;41.70;;;;;;4853514;29;20025;-60
2021/12/03 16:22:57;;;;;;;3.70;1.33;;;20.10;42.10;;;;;;4849745;29;20041;-60
2021/12/03 16:25:37;;;;;;;4.28;1.23;;;20.10;42.20;;;;;;4846618;29;20042;-61
2021/12/03 16:43:33;;;;;;;3.50;1.23;;;20.10;42.40;;;;;;4847418;29;20028;-60
2021/12/03 16:52:33;;;;;;;4.18;1.20;;;19.90;44.20;;;;;;4858090;29;20041;-61
2021/12/03 16:55:00;;;;;;;;;;;19.90;44.10;;;;;;4852834;29;20038;-61
2021/12/03 16:57:36;;;;;;;4.00;1.08;;;19.90;43.80;;;;;;4847007;29;19909;-61
2021/12/03 17:00:53;;;;;;;3.33;1.30;;;19.90;44.10;;;;;;4831567;29;20474;-61
2021/12/03 17:57:53;;;;;;;2.40;0.80;;;19.80;44.80;;;;;;4851018;29;20069;-61
2021/12/03 18:00:25;;;;;;;1.50;0.70;;;19.80;44.70;;;;;;4852427;29;20064;-62
2021/12/03 18:02:53;;;;;;;1.48;0.90;;;19.80;44.70;;;;;;4850130;29;20402;-62
2021/12/03 18:06:04;;;;;;;3.60;0.90;;;19.80;44.60;;;;;;4855801;29;20056;-62
2021/12/03 18:08:16;;;;;;;3.90;0.80;;;19.80;44.70;;;;;;4851599;29;20123;-62
2021/12/03 18:10:51;;;;;;;1.55;0.95;;;19.80;44.60;;;;;;4850519;29;20286;-62
2021/12/03 18:56:29;;;;;;;1.13;0.57;;;19.70;44.40;;;;;;4851669;29;20041;-62
2021/12/03 18:58:57;;;;;;;1.02;0.65;;;19.70;44.40;;;;;;4857383;29;20026;-62
2021/12/03 19:01:29;;;;;;;1.13;0.60;;;19.70;44.30;;;;;;4856119;29;20121;-62
2021/12/03 19:06:56;;;;;;;1.63;0.57;;;19.70;44.30;;;;;;4863398;29;20069;-61
2021/12/03 19:09:32;;;;;;;1.00;0.57;;;19.70;44.30;;;;;;4852948;29;20086;-63
2021/12/03 19:12:09;;;;;;;1.55;0.45;;;19.70;44.30;;;;;;4856674;29;20503;-62
2021/12/03 19:14:38;;;;;;;1.80;0.50;;;19.70;44.40;;;;;;4840250;29;20418;-61
2021/12/03 19:17:06;;;;;;;0.70;0.35;;;19.70;44.30;;;;;;4851235;29;20030;-61
2021/12/03 19:19:37;;;;;;;1.80;0.40;;;19.70;44.20;;;;;;4851187;29;20065;-63
2021/12/03 19:22:04;;;;;;;0.52;0.40;;;19.70;44.30;;;;;;4850438;29;20034;-62
2021/12/03 19:24:30;;;;;;;1.05;0.47;;;19.70;44.20;;;;;;4851805;29;20121;-61
2021/12/03 19:26:56;;;;;;;0.90;0.50;;;19.70;44.30;;;;;;4854210;29;20094;-62
2021/12/03 19:29:23;;;;;;;1.77;0.98;;;19.70;44.10;;;;;;4855481;29;20469;-61
2021/12/03 19:31:51;;;;;;;1.02;0.40;;;19.70;44.10;;;;;;4846746;29;20163;-61
2021/12/03 19:34:20;;;;;;;2.28;0.70;;;19.70;44.10;;;;;;4854614;29;20378;-65
2021/12/03 19:36:46;;;;;;;0.55;0.47;;;19.70;44.10;;;;;;4865764;29;20032;-67
2021/12/03 19:39:15;;;;;;;1.17;0.68;;;19.70;44.10;;;;;;4856756;29;20033;-67
2021/12/03 19:44:10;;;;;;;0.98;0.50;;;19.60;43.60;;;;;;4851628;29;20053;-62
2021/12/03 19:46:39;;;;;;;2.88;0.60;;;19.70;44.00;;;;;;4850794;29;20113;-63
2021/12/03 19:51:51;;;;;;;1.35;0.70;;;19.70;44.40;;;;;;4853164;29;20049;-63
2021/12/03 19:54:18;;;;;;;0.85;0.32;;;19.60;44.60;;;;;;4849362;29;20040;-62
2021/12/03 19:56:44;;;;;;;0.73;0.47;;;19.70;44.80;;;;;;4850469;29;20086;-61
2021/12/03 19:59:11;;;;;;;2.35;0.50;;;19.70;45.00;;;;;;4850121;29;20061;-61
2021/12/03 20:01:37;;;;;;;0.73;0.50;;;19.70;45.10;;;;;;4854819;29;20029;-62
2021/12/03 20:04:04;;;;;;;0.98;0.60;;;19.70;45.10;;;;;;4848824;29;20502;-62
2021/12/03 20:06:30;;;;;;;1.48;0.52;;;19.70;45.10;;;;;;4851269;29;20041;-62
2021/12/03 20:09:01;;;;;;;4.63;0.70;;;19.70;45.00;;;;;;4845308;29;20026;-62
2021/12/03 20:11:36;;;;;;;2.25;0.50;;;19.70;44.90;;;;;;4851576;29;20082;-61
2021/12/03 20:14:02;;;;;;;0.70;0.50;;;19.70;45.10;;;;;;4847375;29;20422;-62
2021/12/03 20:16:33;;;;;;;2.58;0.40;;;19.60;45.00;;;;;;4851038;29;20085;-62
2021/12/03 20:19:09;;;;;;;1.13;0.70;;;19.70;45.30;;;;;;4850140;29;20037;-65
2021/12/03 20:21:38;;;;;;;1.40;0.65;;;19.70;45.60;;;;;;4848356;29;20038;-65
2021/12/03 20:26:52;;;;;;;1.75;0.60;;;19.70;45.90;;;;;;4848499;29;20042;-66
2021/12/03 20:35:03;;;;;;;0.80;0.60;;;19.70;46.20;;;;;;4849813;29;20041;-66
2021/12/03 20:37:40;;;;;;;2.35;0.40;;;19.70;46.20;;;;;;4851924;29;20030;-65
2021/12/03 20:40:11;;;;;;;0.95;0.40;;;19.70;46.20;;;;;;4851233;29;20038;-65
2021/12/03 20:52:52;;;;;;;1.17;0.47;;;19.70;46.30;;;;;;4846671;29;20034;-63
2021/12/03 21:08:41;;;;;;;2.10;0.65;;;19.70;46.90;;;;;;4858056;29;20063;-65
2021/12/03 21:11:10;;;;;;;1.33;0.30;;;19.70;46.00;;;;;;4850178;29;20045;-64
2021/12/03 21:13:38;;;;;;;1.17;0.40;;;19.70;45.80;;;;;;4835950;29;20499;-64